Time;durP1;ratioP1;P1;durP2;ratioP2;P2;SDS_P1;SDS_P2;PMS_P1;PMS_P2;Temp;Humidity;BMP_temperature;BMP_pressure;BME280_temperature;BME280_humidity;BME280_pressure;Samples;Min_cycle;Max_cycle;Signal;HPM_P1;HPM_P2
2024/02/29 00:00:29;;;;;;;;;8.00;8.00;;;;;;;;5073852;27;46537;-69
2024/02/29 00:02:55;;;;;;;;;10.00;10.00;;;;;;;;5090873;27;45464;-69
2024/02/29 00:05:20;;;;;;;;;10.33;9.00;;;;;;;;5094485;27;45426;-69
2024/02/29 00:07:46;;;;;;;;;11.00;10.00;;;;;;;;5090071;27;45357;-69
2024/02/29 00:10:11;;;;;;;;;13.00;12.25;;;;;;;;5089130;27;46102;-69
2024/02/29 00:12:38;;;;;;;;;10.00;10.00;;;;;;;;5079994;27;46057;-69
2024/02/29 00:15:03;;;;;;;;;10.75;10.75;;;;;;;;5074106;27;45643;-69
2024/02/29 00:17:31;;;;;;;;;12.00;8.25;;;;;;;;5089713;27;45415;-69
2024/02/29 00:19:56;;;;;;;;;11.75;11.00;;;;;;;;5097530;27;45453;-69
2024/02/29 00:22:21;;;;;;;;;12.00;10.00;;;;;;;;5079158;27;45354;-69
2024/02/29 00:24:46;;;;;;;;;8.33;8.33;;;;;;;;5083457;27;45605;-69
2024/02/29 00:27:12;;;;;;;;;11.33;9.00;;;;;;;;5090620;27;45270;-69
2024/02/29 00:29:38;;;;;;;;;8.00;8.00;;;;;;;;5081021;27;45321;-69
2024/02/29 00:32:03;;;;;;;;;10.75;9.25;;;;;;;;5087330;27;45558;-69
2024/02/29 00:34:28;;;;;;;;;11.25;8.75;;;;;;;;5082227;27;45386;-69
2024/02/29 00:36:54;;;;;;;;;9.33;9.33;;;;;;;;5087640;27;45429;-69
2024/02/29 00:39:20;;;;;;;;;10.00;7.50;;;;;;;;5099162;27;46092;-69
2024/02/29 00:41:45;;;;;;;;;10.00;8.67;;;;;;;;5078689;28;45503;-69
2024/02/29 00:44:10;;;;;;;;;11.67;9.00;;;;;;;;5092439;27;45390;-69
2024/02/29 00:46:38;;;;;;;;;9.67;9.67;;;;;;;;5087526;27;45421;-69
2024/02/29 00:49:03;;;;;;;;;8.50;8.50;;;;;;;;5085285;27;45559;-69
2024/02/29 00:51:29;;;;;;;;;9.00;8.75;;;;;;;;5071631;27;45398;-69
2024/02/29 00:53:54;;;;;;;;;9.00;6.00;;;;;;;;5079468;27;45410;-69
2024/02/29 00:56:19;;;;;;;;;7.00;6.67;;;;;;;;5079574;27;45306;-69
2024/02/29 00:58:44;;;;;;;;;12.00;9.67;;;;;;;;5080361;27;46767;-69
2024/02/29 01:01:09;;;;;;;;;3.00;2.67;;;;;;;;5091865;27;45241;-69
2024/02/29 01:03:35;;;;;;;;;10.00;10.00;;;;;;;;5080373;27;45447;-69
2024/02/29 01:06:00;;;;;;;;;8.25;8.25;;;;;;;;5099971;27;45289;-69
2024/02/29 01:08:26;;;;;;;;;6.50;5.00;;;;;;;;5086257;27;45463;-69
2024/02/29 01:10:51;;;;;;;;;10.00;9.00;;;;;;;;5091811;27;45309;-69
2024/02/29 01:13:16;;;;;;;;;10.00;6.67;;;;;;;;5067648;27;45711;-69
2024/02/29 01:15:41;;;;;;;;;9.00;6.00;;;;;;;;5079234;27;45483;-69
2024/02/29 01:18:07;;;;;;;;;8.67;8.00;;;;;;;;5092516;27;46673;-69
2024/02/29 01:20:32;;;;;;;;;10.50;9.00;;;;;;;;5079443;27;45316;-69
2024/02/29 01:22:57;;;;;;;;;9.00;9.00;;;;;;;;5076097;27;45316;-69
2024/02/29 01:25:22;;;;;;;;;11.00;9.00;;;;;;;;5086701;27;45727;-69
2024/02/29 01:27:48;;;;;;;;;5.67;5.67;;;;;;;;5093503;27;46210;-69
2024/02/29 01:30:13;;;;;;;;;9.25;8.75;;;;;;;;5079247;27;45447;-69
2024/02/29 01:32:38;;;;;;;;;6.00;6.00;;;;;;;;5076171;27;45301;-69
2024/02/29 01:35:03;;;;;;;;;10.67;8.67;;;;;;;;5068072;27;45589;-69
2024/02/29 01:37:29;;;;;;;;;3.75;3.75;;;;;;;;5085768;27;46023;-69
2024/02/29 01:39:54;;;;;;;;;8.00;8.00;;;;;;;;5083920;27;45337;-69
2024/02/29 01:42:19;;;;;;;;;9.33;6.00;;;;;;;;5088674;27;45514;-69
2024/02/29 01:44:54;;;;;;;;;7.33;5.33;;;;;;;;5078944;27;45602;-69
2024/02/29 01:47:19;;;;;;;;;6.00;6.00;;;;;;;;5098261;27;46892;-69
2024/02/29 01:49:46;;;;;;;;;8.00;6.00;;;;;;;;5093223;27;45575;-69
2024/02/29 01:52:14;;;;;;;;;7.50;5.25;;;;;;;;5096241;27;45315;-69
2024/02/29 01:54:39;;;;;;;;;6.00;4.75;;;;;;;;5093984;27;45358;-69
2024/02/29 01:57:05;;;;;;;;;9.00;5.25;;;;;;;;5101844;27;45403;-69
2024/02/29 01:59:31;;;;;;;;;6.00;6.00;;;;;;;;5086010;27;45404;-69
2024/02/29 02:01:56;;;;;;;;;9.25;7.00;;;;;;;;5084210;27;45347;-69
2024/02/29 02:04:21;;;;;;;;;4.25;4.25;;;;;;;;5085887;27;45377;-69
2024/02/29 02:06:46;;;;;;;;;8.00;8.00;;;;;;;;5086614;27;45564;-69
2024/02/29 02:09:12;;;;;;;;;5.25;5.25;;;;;;;;5106253;27;45289;-69
2024/02/29 02:11:38;;;;;;;;;6.33;5.67;;;;;;;;5100989;27;45448;-69
2024/02/29 02:14:04;;;;;;;;;6.00;6.00;;;;;;;;5082200;27;45405;-69
2024/02/29 02:16:29;;;;;;;;;7.50;4.25;;;;;;;;5091602;27;46802;-69
2024/02/29 02:18:56;;;;;;;;;9.25;6.00;;;;;;;;5105926;27;45372;-69
2024/02/29 02:21:21;;;;;;;;;9.67;8.33;;;;;;;;5092314;27;45499;-69
2024/02/29 02:23:46;;;;;;;;;6.00;6.00;;;;;;;;5087753;27;45557;-69
2024/02/29 02:26:11;;;;;;;;;7.33;7.33;;;;;;;;5084835;27;45615;-69
2024/02/29 02:28:36;;;;;;;;;5.33;5.00;;;;;;;;5085066;27;45291;-69
2024/02/29 02:31:01;;;;;;;;;5.33;5.33;;;;;;;;5096888;27;45622;-69
2024/02/29 02:33:27;;;;;;;;;9.00;8.00;;;;;;;;5085215;27;45492;-69
2024/02/29 02:35:52;;;;;;;;;8.25;8.00;;;;;;;;5084909;27;46484;-69
2024/02/29 02:38:17;;;;;;;;;4.33;4.33;;;;;;;;5091824;27;45401;-69
2024/02/29 02:40:42;;;;;;;;;8.00;8.00;;;;;;;;5083061;27;46554;-69
2024/02/29 02:43:07;;;;;;;;;10.67;5.67;;;;;;;;5084983;27;45674;-69
2024/02/29 02:45:33;;;;;;;;;5.33;4.33;;;;;;;;5097540;27;45352;-69
2024/02/29 02:47:58;;;;;;;;;8.00;5.00;;;;;;;;5087335;27;45421;-69
2024/02/29 02:50:24;;;;;;;;;8.50;8.25;;;;;;;;5085534;27;45708;-69
2024/02/29 02:52:49;;;;;;;;;5.75;5.75;;;;;;;;5068195;27;45625;-69
2024/02/29 02:55:14;;;;;;;;;8.33;5.33;;;;;;;;5080093;27;45548;-70
2024/02/29 02:57:39;;;;;;;;;9.67;6.00;;;;;;;;5079906;27;45309;-69
2024/02/29 03:00:06;;;;;;;;;7.00;5.00;;;;;;;;5084989;27;45548;-69
2024/02/29 03:02:31;;;;;;;;;6.00;6.00;;;;;;;;5077605;27;45573;-69
2024/02/29 03:04:57;;;;;;;;;6.00;5.00;;;;;;;;5079307;27;46140;-69
2024/02/29 03:07:22;;;;;;;;;6.75;6.00;;;;;;;;5082809;27;45332;-69
2024/02/29 03:09:47;;;;;;;;;4.33;4.33;;;;;;;;5072152;27;45525;-69
2024/02/29 03:12:12;;;;;;;;;8.00;6.00;;;;;;;;5081002;27;45364;-69
2024/02/29 03:14:37;;;;;;;;;5.75;5.75;;;;;;;;5088128;27;46562;-69
2024/02/29 03:17:03;;;;;;;;;4.50;4.50;;;;;;;;5078832;27;45518;-69
2024/02/29 03:19:28;;;;;;;;;7.50;6.50;;;;;;;;5067329;27;45694;-69
2024/02/29 03:21:53;;;;;;;;;6.25;5.00;;;;;;;;5071410;27;45365;-70
2024/02/29 03:24:19;;;;;;;;;5.67;5.67;;;;;;;;5079074;27;46154;-69
2024/02/29 03:26:44;;;;;;;;;7.33;5.67;;;;;;;;5079360;27;45429;-69
2024/02/29 03:29:11;;;;;;;;;5.67;5.67;;;;;;;;5079188;28;45498;-69
2024/02/29 03:31:36;;;;;;;;;7.50;7.50;;;;;;;;5078447;27;45697;-69
2024/02/29 03:34:02;;;;;;;;;4.00;4.00;;;;;;;;5071953;27;46214;-69
2024/02/29 03:36:27;;;;;;;;;5.00;5.00;;;;;;;;5093161;27;45671;-69
2024/02/29 03:38:52;;;;;;;;;6.00;6.00;;;;;;;;5073194;27;45429;-69
2024/02/29 03:41:18;;;;;;;;;7.33;5.67;;;;;;;;5074599;27;45441;-69
2024/02/29 03:43:43;;;;;;;;;5.33;5.33;;;;;;;;5079437;27;45603;-69
2024/02/29 03:46:09;;;;;;;;;5.33;5.00;;;;;;;;5091303;27;45441;-69
2024/02/29 03:48:35;;;;;;;;;6.00;5.50;;;;;;;;5078945;28;45455;-69
2024/02/29 03:51:01;;;;;;;;;6.00;6.00;;;;;;;;5088382;27;45503;-69
2024/02/29 03:53:26;;;;;;;;;9.67;9.00;;;;;;;;5093978;27;45600;-69
2024/02/29 03:55:51;;;;;;;;;6.00;6.00;;;;;;;;5081723;27;45349;-69
2024/02/29 03:58:16;;;;;;;;;9.33;8.33;;;;;;;;5071788;28;45654;-69
2024/02/29 04:00:42;;;;;;;;;10.00;6.00;;;;;;;;5078187;27;45562;-69
2024/02/29 04:03:07;;;;;;;;;6.00;4.50;;;;;;;;5077943;27;46450;-69
2024/02/29 04:05:33;;;;;;;;;9.67;8.00;;;;;;;;5089478;27;45352;-69
2024/02/29 04:08:03;;;;;;;;;8.33;8.33;;;;;;;;5078707;27;45494;-69
2024/02/29 04:10:28;;;;;;;;;7.25;7.25;;;;;;;;5077648;27;45356;-69
2024/02/29 04:12:54;;;;;;;;;10.75;9.50;;;;;;;;5069467;27;45373;-69
2024/02/29 04:15:19;;;;;;;;;11.50;7.25;;;;;;;;5083444;27;45611;-69
2024/02/29 04:17:44;;;;;;;;;8.67;8.67;;;;;;;;5085237;27;45483;-69
2024/02/29 04:20:09;;;;;;;;;6.00;6.00;;;;;;;;5084109;27;45403;-69
2024/02/29 04:22:35;;;;;;;;;8.25;6.00;;;;;;;;5081240;27;46258;-69
2024/02/29 04:25:00;;;;;;;;;9.00;9.00;;;;;;;;5083196;27;45425;-69
2024/02/29 04:27:25;;;;;;;;;6.67;6.00;;;;;;;;5088399;27;45446;-69
2024/02/29 04:29:50;;;;;;;;;9.00;6.00;;;;;;;;5078903;27;45257;-69
2024/02/29 04:32:15;;;;;;;;;7.33;6.00;;;;;;;;5077676;27;45453;-69
2024/02/29 04:34:41;;;;;;;;;8.67;6.00;;;;;;;;5087732;27;45568;-69
2024/02/29 04:37:06;;;;;;;;;9.75;8.75;;;;;;;;5081764;27;45675;-69
2024/02/29 04:39:32;;;;;;;;;7.33;7.00;;;;;;;;5066862;27;45318;-69
2024/02/29 04:41:57;;;;;;;;;9.75;9.75;;;;;;;;5075638;27;45389;-69
2024/02/29 04:44:22;;;;;;;;;9.00;7.00;;;;;;;;5077791;27;45550;-69
2024/02/29 04:46:47;;;;;;;;;6.67;5.67;;;;;;;;5078357;27;45500;-69
2024/02/29 04:49:12;;;;;;;;;6.67;4.00;;;;;;;;5078132;27;45409;-69
2024/02/29 04:51:37;;;;;;;;;6.00;5.33;;;;;;;;5071171;27;46739;-69
2024/02/29 04:54:03;;;;;;;;;6.00;6.00;;;;;;;;5087349;27;45502;-69
2024/02/29 04:56:28;;;;;;;;;6.50;6.50;;;;;;;;5077551;27;45643;-69
2024/02/29 04:58:53;;;;;;;;;5.75;5.75;;;;;;;;5091035;27;45635;-69
2024/02/29 05:01:19;;;;;;;;;11.00;8.33;;;;;;;;5076341;27;46525;-69
2024/02/29 05:03:44;;;;;;;;;7.00;6.50;;;;;;;;5077012;27;45404;-69
2024/02/29 05:06:14;;;;;;;;;7.33;7.33;;;;;;;;5078026;27;45656;-69
2024/02/29 05:08:39;;;;;;;;;7.50;7.50;;;;;;;;5077275;27;46113;-69
2024/02/29 05:11:07;;;;;;;;;9.25;7.00;;;;;;;;5069535;27;45352;-69
2024/02/29 05:13:32;;;;;;;;;6.00;6.00;;;;;;;;5070770;27;45330;-69
2024/02/29 05:15:57;;;;;;;;;10.33;8.00;;;;;;;;5082712;27;45541;-69
2024/02/29 05:18:26;;;;;;;;;10.00;6.33;;;;;;;;5081315;27;45386;-69
2024/02/29 05:20:51;;;;;;;;;10.00;8.75;;;;;;;;5088020;27;46049;-69
2024/02/29 05:23:17;;;;;;;;;6.00;6.00;;;;;;;;5074701;27;45524;-69
2024/02/29 05:25:42;;;;;;;;;4.00;4.00;;;;;;;;5080931;27;45613;-69
2024/02/29 05:28:07;;;;;;;;;9.67;8.33;;;;;;;;5077869;27;45587;-69
2024/02/29 05:30:32;;;;;;;;;3.33;3.33;;;;;;;;5078177;27;45522;-70
2024/02/29 05:32:57;;;;;;;;;9.00;5.00;;;;;;;;5078094;27;45675;-69
2024/02/29 05:35:25;;;;;;;;;6.67;6.67;;;;;;;;5078952;27;45449;-69
2024/02/29 05:37:50;;;;;;;;;11.75;10.25;;;;;;;;5080605;27;45345;-69
2024/02/29 05:40:15;;;;;;;;;6.33;6.33;;;;;;;;5071236;27;45314;-69
2024/02/29 05:42:40;;;;;;;;;8.00;6.00;;;;;;;;5072570;27;45853;-69
2024/02/29 05:45:06;;;;;;;;;8.00;7.50;;;;;;;;5085773;27;45468;-69
2024/02/29 05:47:32;;;;;;;;;14.50;11.00;;;;;;;;5081079;27;45541;-70
2024/02/29 05:49:57;;;;;;;;;12.50;11.25;;;;;;;;5083287;27;47333;-69
2024/02/29 05:52:22;;;;;;;;;10.75;10.75;;;;;;;;5077901;27;45309;-69
2024/02/29 05:54:49;;;;;;;;;9.50;9.25;;;;;;;;5083806;27;45512;-69
2024/02/29 05:57:14;;;;;;;;;10.25;9.25;;;;;;;;5088848;27;45503;-69
2024/02/29 05:59:39;;;;;;;;;7.33;7.33;;;;;;;;5085111;27;47510;-69
2024/02/29 06:02:04;;;;;;;;;10.67;9.67;;;;;;;;5082536;27;45460;-69
2024/02/29 06:04:29;;;;;;;;;8.67;8.67;;;;;;;;5095205;27;45702;-69
2024/02/29 06:06:55;;;;;;;;;7.00;6.67;;;;;;;;5094630;27;45763;-69
2024/02/29 06:09:20;;;;;;;;;14.33;12.00;;;;;;;;5069698;27;46305;-69
2024/02/29 06:11:45;;;;;;;;;12.00;11.67;;;;;;;;5069980;27;45564;-69
2024/02/29 06:14:10;;;;;;;;;10.33;10.00;;;;;;;;5077525;27;45583;-69
2024/02/29 06:16:35;;;;;;;;;10.00;10.00;;;;;;;;5082985;27;45457;-69
2024/02/29 06:19:00;;;;;;;;;11.00;11.00;;;;;;;;5084554;27;45610;-69
2024/02/29 06:21:26;;;;;;;;;12.67;11.00;;;;;;;;5069548;27;45487;-69
2024/02/29 06:23:53;;;;;;;;;10.33;10.33;;;;;;;;5077180;27;45822;-69
2024/02/29 06:26:18;;;;;;;;;14.75;9.75;;;;;;;;5091401;27;45627;-69
2024/02/29 06:28:43;;;;;;;;;12.00;10.67;;;;;;;;5079477;27;45469;-69
2024/02/29 06:31:08;;;;;;;;;9.33;9.33;;;;;;;;5079731;27;45746;-69
2024/02/29 06:33:34;;;;;;;;;10.33;10.00;;;;;;;;5082448;27;45562;-70
2024/02/29 06:36:01;;;;;;;;;9.75;9.75;;;;;;;;5088676;27;45583;-69
2024/02/29 06:38:26;;;;;;;;;10.75;9.25;;;;;;;;5084585;27;45695;-69
2024/02/29 06:40:51;;;;;;;;;6.67;6.67;;;;;;;;5077839;27;45604;-69
2024/02/29 06:43:17;;;;;;;;;8.67;8.00;;;;;;;;5073932;27;45464;-69
2024/02/29 06:45:47;;;;;;;;;8.50;8.50;;;;;;;;5079823;27;45559;-63
2024/02/29 06:48:13;;;;;;;;;8.00;6.25;;;;;;;;5078638;27;46793;-63
2024/02/29 06:50:38;;;;;;;;;7.75;6.00;;;;;;;;5078490;27;45358;-63
2024/02/29 06:53:03;;;;;;;;;5.67;5.00;;;;;;;;5072559;27;45611;-63
2024/02/29 06:55:28;;;;;;;;;9.75;9.75;;;;;;;;5071676;27;45452;-63
2024/02/29 06:57:54;;;;;;;;;8.67;8.67;;;;;;;;5079506;27;45315;-63
2024/02/29 07:00:19;;;;;;;;;8.33;8.33;;;;;;;;5085212;27;45372;-63
2024/02/29 07:02:44;;;;;;;;;8.00;8.00;;;;;;;;5087268;27;45345;-63
2024/02/29 07:05:09;;;;;;;;;8.33;8.00;;;;;;;;5083383;27;45677;-63
2024/02/29 07:07:34;;;;;;;;;10.00;9.50;;;;;;;;5062498;28;47160;-63
2024/02/29 07:10:03;;;;;;;;;10.25;9.25;;;;;;;;5075925;27;45521;-63
2024/02/29 07:12:28;;;;;;;;;10.00;8.75;;;;;;;;5087069;27;45325;-62
2024/02/29 07:14:54;;;;;;;;;9.00;7.75;;;;;;;;5085561;27;45565;-63
2024/02/29 07:17:20;;;;;;;;;12.00;12.00;;;;;;;;5086213;27;46092;-63
2024/02/29 07:19:46;;;;;;;;;15.00;12.25;;;;;;;;5089289;27;45402;-62
2024/02/29 07:22:11;;;;;;;;;11.00;11.00;;;;;;;;5079778;27;45483;-62
2024/02/29 07:24:36;;;;;;;;;9.67;8.00;;;;;;;;5073019;27;45428;-62
2024/02/29 07:27:02;;;;;;;;;10.25;10.25;;;;;;;;5076715;27;45654;-62
2024/02/29 07:29:27;;;;;;;;;7.75;7.50;;;;;;;;5078512;27;45574;-69
2024/02/29 07:31:52;;;;;;;;;13.33;12.00;;;;;;;;5077950;27;45451;-66
2024/02/29 07:34:18;;;;;;;;;8.67;8.67;;;;;;;;5073521;27;45495;-66
2024/02/29 07:36:43;;;;;;;;;8.50;8.50;;;;;;;;5090606;27;46087;-66
2024/02/29 07:39:11;;;;;;;;;8.00;8.00;;;;;;;;5074407;27;45521;-67
2024/02/29 07:41:36;;;;;;;;;10.25;10.00;;;;;;;;5078636;27;45287;-67
2024/02/29 07:44:02;;;;;;;;;11.25;9.25;;;;;;;;5088913;27;45480;-67
2024/02/29 07:46:27;;;;;;;;;9.00;9.00;;;;;;;;5080192;27;46614;-67
2024/02/29 07:48:52;;;;;;;;;10.00;10.00;;;;;;;;5075399;27;45349;-67
2024/02/29 07:51:18;;;;;;;;;10.33;10.33;;;;;;;;5087151;27;45439;-70
2024/02/29 07:53:43;;;;;;;;;10.25;9.25;;;;;;;;5093691;27;45525;-68
2024/02/29 07:56:08;;;;;;;;;11.67;9.00;;;;;;;;5091412;27;46646;-67
2024/02/29 07:58:34;;;;;;;;;8.75;8.50;;;;;;;;5066680;27;45411;-67
2024/02/29 08:00:59;;;;;;;;;10.33;7.67;;;;;;;;5074127;27;45460;-67
2024/02/29 08:03:24;;;;;;;;;8.67;8.67;;;;;;;;5085116;27;45388;-67
2024/02/29 08:05:49;;;;;;;;;6.00;5.00;;;;;;;;5078321;27;46156;-67
2024/02/29 08:08:15;;;;;;;;;9.00;8.67;;;;;;;;5077011;27;45648;-67
2024/02/29 08:10:40;;;;;;;;;11.00;9.00;;;;;;;;5075760;27;45916;-67
2024/02/29 08:13:05;;;;;;;;;8.33;8.33;;;;;;;;5076394;27;45569;-68
2024/02/29 08:15:30;;;;;;;;;9.00;8.33;;;;;;;;5083879;27;46246;-67
2024/02/29 08:17:57;;;;;;;;;9.00;7.67;;;;;;;;5080193;27;45338;-67
2024/02/29 08:20:25;;;;;;;;;7.75;7.75;;;;;;;;5079407;27;45476;-67
2024/02/29 08:22:53;;;;;;;;;9.50;8.00;;;;;;;;5077772;27;45345;-67
2024/02/29 08:25:20;;;;;;;;;6.75;6.25;;;;;;;;5071922;27;45497;-67
2024/02/29 08:27:45;;;;;;;;;11.00;9.50;;;;;;;;5076035;27;45625;-67
2024/02/29 08:30:12;;;;;;;;;8.67;8.00;;;;;;;;5077560;27;45527;-67
2024/02/29 08:32:37;;;;;;;;;8.75;8.00;;;;;;;;5085283;27;45390;-67
2024/02/29 08:35:03;;;;;;;;;9.00;8.00;;;;;;;;5076875;27;46283;-67
2024/02/29 08:37:28;;;;;;;;;8.50;8.50;;;;;;;;5077344;27;45447;-67
2024/02/29 08:39:53;;;;;;;;;11.00;9.00;;;;;;;;5076009;27;45765;-67
2024/02/29 08:42:18;;;;;;;;;12.33;10.33;;;;;;;;5076290;27;45560;-67
2024/02/29 08:44:43;;;;;;;;;10.00;10.00;;;;;;;;5077018;27;45414;-67
2024/02/29 08:47:08;;;;;;;;;8.33;8.00;;;;;;;;5077508;27;45836;-67
2024/02/29 08:49:34;;;;;;;;;8.00;8.00;;;;;;;;5088789;27;45707;-67
2024/02/29 08:51:59;;;;;;;;;9.00;8.00;;;;;;;;5083276;27;45432;-67
2024/02/29 08:54:24;;;;;;;;;10.00;8.00;;;;;;;;5083936;27;45530;-67
2024/02/29 08:56:49;;;;;;;;;8.25;8.25;;;;;;;;5078375;27;45415;-67
2024/02/29 08:59:14;;;;;;;;;5.67;5.00;;;;;;;;5077965;27;45246;-67
2024/02/29 09:01:40;;;;;;;;;5.67;5.00;;;;;;;;5075081;27;45318;-67
2024/02/29 09:04:05;;;;;;;;;6.67;6.33;;;;;;;;5081335;27;46229;-67
2024/02/29 09:06:30;;;;;;;;;7.00;7.00;;;;;;;;5084490;27;45473;-67
2024/02/29 09:08:56;;;;;;;;;9.33;8.67;;;;;;;;5078717;27;45337;-67
2024/02/29 09:11:21;;;;;;;;;10.00;9.00;;;;;;;;5085761;27;45601;-67
2024/02/29 09:13:46;;;;;;;;;7.33;7.33;;;;;;;;5076624;27;47116;-67
2024/02/29 09:16:11;;;;;;;;;9.00;9.00;;;;;;;;5078421;27;45431;-67
2024/02/29 09:18:36;;;;;;;;;7.67;5.00;;;;;;;;5078541;27;45339;-67
2024/02/29 09:21:02;;;;;;;;;10.00;10.00;;;;;;;;5079057;27;45321;-67
2024/02/29 09:23:28;;;;;;;;;5.00;4.75;;;;;;;;5071113;27;46858;-67
2024/02/29 09:25:53;;;;;;;;;9.00;8.25;;;;;;;;5090092;27;45262;-67
2024/02/29 09:28:18;;;;;;;;;10.00;7.00;;;;;;;;5083586;27;45514;-67
2024/02/29 09:30:44;;;;;;;;;10.00;9.33;;;;;;;;5088767;27;45486;-67
2024/02/29 09:33:09;;;;;;;;;8.00;6.00;;;;;;;;5080242;27;45432;-67
2024/02/29 09:35:34;;;;;;;;;8.00;8.00;;;;;;;;5069726;27;45424;-67
2024/02/29 09:37:59;;;;;;;;;9.00;9.00;;;;;;;;5076665;27;45494;-67
2024/02/29 09:40:24;;;;;;;;;6.00;6.00;;;;;;;;5079556;27;45615;-67
2024/02/29 09:42:50;;;;;;;;;7.00;7.00;;;;;;;;5079022;27;45431;-67
2024/02/29 09:45:15;;;;;;;;;6.67;5.00;;;;;;;;5084874;27;45473;-67
2024/02/29 09:47:40;;;;;;;;;9.00;8.00;;;;;;;;5073606;27;45513;-67
2024/02/29 09:50:07;;;;;;;;;3.00;3.00;;;;;;;;5078313;27;45366;-67
2024/02/29 09:52:34;;;;;;;;;8.00;8.00;;;;;;;;5084784;27;46143;-67
2024/02/29 09:55:04;;;;;;;;;5.00;4.00;;;;;;;;5078224;27;46573;-67
2024/02/29 09:57:29;;;;;;;;;7.00;7.00;;;;;;;;5084932;27;45605;-67
2024/02/29 09:59:55;;;;;;;;;5.00;5.00;;;;;;;;5086094;27;45498;-67
2024/02/29 10:02:21;;;;;;;;;7.25;5.00;;;;;;;;5098606;27;45539;-67
2024/02/29 10:04:48;;;;;;;;;8.00;5.00;;;;;;;;5085894;27;45530;-67
2024/02/29 10:07:14;;;;;;;;;7.00;5.00;;;;;;;;5086486;27;45372;-67
2024/02/29 10:09:39;;;;;;;;;5.00;4.25;;;;;;;;5081927;27;45317;-67
2024/02/29 10:12:05;;;;;;;;;6.00;4.67;;;;;;;;5080450;27;47105;-67
2024/02/29 10:14:30;;;;;;;;;4.75;4.75;;;;;;;;5077384;27;45402;-67
2024/02/29 10:16:56;;;;;;;;;4.25;4.25;;;;;;;;5080809;27;46578;-67
2024/02/29 10:19:22;;;;;;;;;6.25;5.00;;;;;;;;5081532;27;45251;-67
2024/02/29 10:21:48;;;;;;;;;3.25;3.25;;;;;;;;5081535;27;46066;-67
2024/02/29 10:24:13;;;;;;;;;4.50;4.00;;;;;;;;5078895;27;45363;-67
2024/02/29 10:26:38;;;;;;;;;3.00;3.00;;;;;;;;5081162;27;45329;-67
2024/02/29 10:29:04;;;;;;;;;2.67;2.67;;;;;;;;5085866;27;45596;-67
2024/02/29 10:31:29;;;;;;;;;3.75;3.75;;;;;;;;5080309;27;47287;-64
2024/02/29 10:33:54;;;;;;;;;5.67;4.00;;;;;;;;5089003;27;45574;-65
2024/02/29 10:36:19;;;;;;;;;5.00;4.00;;;;;;;;5081984;27;45583;-65
2024/02/29 10:38:44;;;;;;;;;4.75;4.75;;;;;;;;5079578;27;45640;-64
2024/02/29 10:41:11;;;;;;;;;4.00;4.00;;;;;;;;5079727;27;46187;-65
2024/02/29 10:43:36;;;;;;;;;3.50;3.50;;;;;;;;5089043;27;45436;-66
2024/02/29 10:46:04;;;;;;;;;3.00;3.00;;;;;;;;5075862;27;45690;-66
2024/02/29 10:48:51;;;;;;;;;4.50;3.25;;;;;;;;5075654;27;45675;-66
2024/02/29 10:51:16;;;;;;;;;4.50;4.00;;;;;;;;5078427;27;46063;-66
2024/02/29 10:54:03;;;;;;;;;6.00;5.00;;;;;;;;5094995;27;45406;-66
2024/02/29 10:56:31;;;;;;;;;4.75;4.50;;;;;;;;5083106;27;45468;-66
2024/02/29 10:59:03;;;;;;;;;3.75;3.75;;;;;;;;5078573;27;45368;-66
2024/02/29 11:01:30;;;;;;;;;4.25;4.25;;;;;;;;5075672;27;46197;-66
2024/02/29 11:03:55;;;;;;;;;6.75;6.75;;;;;;;;5064462;27;45398;-66
2024/02/29 11:06:21;;;;;;;;;3.00;3.00;;;;;;;;5082171;27;45384;-66
2024/02/29 11:08:47;;;;;;;;;7.00;5.00;;;;;;;;5089833;27;45385;-66
2024/02/29 11:11:14;;;;;;;;;6.00;5.25;;;;;;;;5087686;27;46220;-66
2024/02/29 11:13:40;;;;;;;;;5.00;5.00;;;;;;;;5091419;27;45598;-66
2024/02/29 11:16:10;;;;;;;;;5.50;5.50;;;;;;;;5087228;27;45246;-66
2024/02/29 11:18:37;;;;;;;;;7.50;6.00;;;;;;;;5100683;27;45545;-66
2024/02/29 11:21:03;;;;;;;;;4.25;4.25;;;;;;;;5090543;27;46381;-66
2024/02/29 11:23:39;;;;;;;;;3.75;3.50;;;;;;;;5083328;27;45599;-66
2024/02/29 11:26:10;;;;;;;;;3.25;3.25;;;;;;;;5081363;27;45254;-66
2024/02/29 11:28:40;;;;;;;;;3.50;3.50;;;;;;;;5079793;27;45306;-67
2024/02/29 11:31:18;;;;;;;;;6.75;5.75;;;;;;;;5094254;27;45333;-67
2024/02/29 11:33:46;;;;;;;;;4.00;4.00;;;;;;;;5070615;27;45714;-67
2024/02/29 11:36:12;;;;;;;;;5.75;5.00;;;;;;;;5080174;27;45332;-67
2024/02/29 11:38:37;;;;;;;;;6.00;5.75;;;;;;;;5079859;27;45534;-67
2024/02/29 11:41:12;;;;;;;;;6.00;5.00;;;;;;;;5078739;27;46941;-67
2024/02/29 11:43:38;;;;;;;;;6.00;6.00;;;;;;;;5067632;27;45465;-67
2024/02/29 11:46:08;;;;;;;;;6.00;6.00;;;;;;;;5069570;28;45388;-67
2024/02/29 11:48:33;;;;;;;;;6.25;5.00;;;;;;;;5070224;27;45536;-67
2024/02/29 11:50:58;;;;;;;;;6.67;6.67;;;;;;;;5079701;27;45541;-67
2024/02/29 11:53:25;;;;;;;;;5.33;5.00;;;;;;;;5078526;27;45840;-67
2024/02/29 11:55:52;;;;;;;;;5.75;5.75;;;;;;;;5079404;27;45484;-67
2024/02/29 11:58:17;;;;;;;;;7.00;6.25;;;;;;;;5068809;27;45350;-67
2024/02/29 12:00:42;;;;;;;;;8.00;7.50;;;;;;;;5076795;27;46086;-67
2024/02/29 12:03:08;;;;;;;;;10.00;8.00;;;;;;;;5064010;27;45398;-67
2024/02/29 12:05:34;;;;;;;;;7.00;6.25;;;;;;;;5074827;28;45748;-67
2024/02/29 12:08:00;;;;;;;;;7.75;7.75;;;;;;;;5079908;27;45486;-68
2024/02/29 12:10:25;;;;;;;;;4.50;4.50;;;;;;;;5074866;27;46083;-67
2024/02/29 12:12:51;;;;;;;;;4.75;4.75;;;;;;;;5088469;27;45359;-67
2024/02/29 12:15:16;;;;;;;;;5.33;5.33;;;;;;;;5095201;27;45307;-67
2024/02/29 12:17:42;;;;;;;;;5.00;5.00;;;;;;;;5073928;27;45464;-67
2024/02/29 12:20:10;;;;;;;;;6.00;4.00;;;;;;;;5086426;27;47049;-67
2024/02/29 12:22:35;;;;;;;;;4.00;3.50;;;;;;;;5098915;27;45555;-67
2024/02/29 12:25:11;;;;;;;;;5.00;5.00;;;;;;;;5095241;27;45423;-67
2024/02/29 12:27:36;;;;;;;;;5.75;4.00;;;;;;;;5077953;27;45370;-69
2024/02/29 12:30:03;;;;;;;;;3.50;3.50;;;;;;;;5067812;27;46450;-67
2024/02/29 12:32:29;;;;;;;;;4.25;4.25;;;;;;;;5095034;27;46638;-67
2024/02/29 12:34:55;;;;;;;;;4.00;3.50;;;;;;;;5100474;27;45826;-67
2024/02/29 12:37:22;;;;;;;;;3.50;3.50;;;;;;;;5090513;27;45554;-67
2024/02/29 12:39:54;;;;;;;;;3.25;3.25;;;;;;;;5091321;27;45376;-67
2024/02/29 12:42:19;;;;;;;;;2.50;2.50;;;;;;;;5076707;27;45342;-67
2024/02/29 12:44:45;;;;;;;;;2.25;2.25;;;;;;;;5078079;27;45330;-67
2024/02/29 12:47:10;;;;;;;;;5.00;5.00;;;;;;;;5068506;27;46370;-67
2024/02/29 12:49:36;;;;;;;;;3.67;3.67;;;;;;;;5074482;27;45443;-68
2024/02/29 12:52:01;;;;;;;;;4.33;3.00;;;;;;;;5070983;27;45762;-67
2024/02/29 12:54:26;;;;;;;;;3.33;3.33;;;;;;;;5077870;27;45321;-67
2024/02/29 12:56:51;;;;;;;;;3.33;3.33;;;;;;;;5075651;27;45495;-67
2024/02/29 12:59:17;;;;;;;;;3.00;3.00;;;;;;;;5077116;27;46810;-67
2024/02/29 13:01:43;;;;;;;;;5.50;4.50;;;;;;;;5083698;27;45442;-67
2024/02/29 13:04:08;;;;;;;;;4.00;4.00;;;;;;;;5083525;27;45595;-67
2024/02/29 13:06:33;;;;;;;;;4.00;3.33;;;;;;;;5080843;27;46345;-67
2024/02/29 13:08:58;;;;;;;;;4.00;4.00;;;;;;;;5077444;27;45523;-67
2024/02/29 13:11:23;;;;;;;;;5.00;5.00;;;;;;;;5066509;27;45294;-67
2024/02/29 13:13:49;;;;;;;;;4.00;3.00;;;;;;;;5083249;27;45384;-67
2024/02/29 13:16:14;;;;;;;;;5.00;4.00;;;;;;;;5078023;27;45539;-67
2024/02/29 13:18:39;;;;;;;;;3.00;3.00;;;;;;;;5074672;27;46320;-67
2024/02/29 13:21:04;;;;;;;;;3.00;3.00;;;;;;;;5069285;27;45785;-67
2024/02/29 13:23:30;;;;;;;;;5.00;5.00;;;;;;;;5075647;28;45520;-68
2024/02/29 13:25:55;;;;;;;;;4.67;3.00;;;;;;;;5069650;27;45721;-67
2024/02/29 13:28:20;;;;;;;;;5.33;5.00;;;;;;;;5077101;27;45600;-67
2024/02/29 13:30:45;;;;;;;;;6.00;6.00;;;;;;;;5078516;27;45515;-67
2024/02/29 13:33:10;;;;;;;;;5.75;5.75;;;;;;;;5069369;27;45552;-67
2024/02/29 13:35:36;;;;;;;;;3.00;3.00;;;;;;;;5086900;27;45314;-67
2024/02/29 13:38:01;;;;;;;;;4.00;4.00;;;;;;;;5078532;27;45526;-67
2024/02/29 13:40:26;;;;;;;;;5.00;5.00;;;;;;;;5071568;27;45507;-67
2024/02/29 13:42:51;;;;;;;;;6.33;6.33;;;;;;;;5072501;27;45536;-67
2024/02/29 13:45:16;;;;;;;;;4.00;4.00;;;;;;;;5079361;27;45561;-67
2024/02/29 13:47:46;;;;;;;;;5.00;4.67;;;;;;;;5091524;27;45469;-67
2024/02/29 13:50:11;;;;;;;;;3.25;3.25;;;;;;;;5071890;27;45627;-67
2024/02/29 13:52:38;;;;;;;;;5.67;4.67;;;;;;;;5073608;27;45657;-67
2024/02/29 13:55:04;;;;;;;;;6.25;4.25;;;;;;;;5069286;27;45310;-68
2024/02/29 13:57:29;;;;;;;;;5.00;5.00;;;;;;;;5076414;27;47191;-67
2024/02/29 13:59:54;;;;;;;;;4.00;4.00;;;;;;;;5073406;27;45623;-68
2024/02/29 14:02:19;;;;;;;;;4.00;4.00;;;;;;;;5076384;27;45743;-67
2024/02/29 14:04:45;;;;;;;;;4.00;4.00;;;;;;;;5077308;27;45484;-67
2024/02/29 14:07:10;;;;;;;;;4.00;4.00;;;;;;;;5073372;27;46071;-68
2024/02/29 14:09:35;;;;;;;;;5.75;4.00;;;;;;;;5070597;27;45557;-68
2024/02/29 14:12:00;;;;;;;;;3.33;3.33;;;;;;;;5076752;27;45413;-68
2024/02/29 14:14:26;;;;;;;;;4.67;4.00;;;;;;;;5090372;27;45538;-68
2024/02/29 14:16:51;;;;;;;;;5.00;5.00;;;;;;;;5077595;27;45495;-68
2024/02/29 14:19:16;;;;;;;;;3.50;2.75;;;;;;;;5077116;27;45314;-67
2024/02/29 14:21:41;;;;;;;;;5.00;5.00;;;;;;;;5073543;27;45457;-67
2024/02/29 14:24:06;;;;;;;;;3.00;3.00;;;;;;;;5071914;27;45954;-67
2024/02/29 14:26:32;;;;;;;;;3.00;3.00;;;;;;;;5063907;27;45391;-67
2024/02/29 14:28:57;;;;;;;;;3.00;3.00;;;;;;;;5075364;27;45551;-68